Aviation Digital Data Service (ADDS)

Output produced by METARs form (0932 UTC 18 January 2022)
found at http://www.aviationweather.gov/metar/data/
 
METAR text: ULLI 180900Z 31009MPS CAVOK M06/M10 Q1014 R88/290050 NOSIG
Conditions at: ULLI (ST PETERSBURG , RU) observed 0900 UTC 18 January 2022
Temperature: -6.0°C (21°F)
Dewpoint: -10.0°C (14°F) [RH = 73%]
Pressure (altimeter): 29.94 inches Hg (1014.0 mb)
Winds: from the NW (310 degrees) at 20 MPH (17 knots; 8.7 m/s)
Visibility: 6 or more miles (10+ km)
Ceiling: ceiling and visibility are OK
Clouds: unknown
Weather: no significant weather observed at this time

METAR text: ULLI 180830Z 32009MPS CAVOK M06/M10 Q1013 R88/290050 NOSIG
Conditions at: ULLI (ST PETERSBURG , RU) observed 0830 UTC 18 January 2022
Temperature: -6.0°C (21°F)
Dewpoint: -10.0°C (14°F) [RH = 73%]
Pressure (altimeter): 29.91 inches Hg (1013.0 mb)
Winds: from the NW (320 degrees) at 20 MPH (17 knots; 8.7 m/s)
Visibility: 6 or more miles (10+ km)
Ceiling: ceiling and visibility are OK
Clouds: unknown
Weather: no significant weather observed at this time

METAR text: ULLI 180800Z 31009MPS CAVOK M06/M10 Q1012 R88/290050 NOSIG
Conditions at: ULLI (ST PETERSBURG , RU) observed 0800 UTC 18 January 2022
Temperature: -6.0°C (21°F)
Dewpoint: -10.0°C (14°F) [RH = 73%]
Pressure (altimeter): 29.88 inches Hg (1012.0 mb)
Winds: from the NW (310 degrees) at 20 MPH (17 knots; 8.7 m/s)
Visibility: 6 or more miles (10+ km)
Ceiling: ceiling and visibility are OK
Clouds: unknown
Weather: no significant weather observed at this time

METAR text: ULLI 180730Z 31009MPS CAVOK M06/M11 Q1012 R88/290050 NOSIG
Conditions at: ULLI (ST PETERSBURG , RU) observed 0730 UTC 18 January 2022
Temperature: -6.0°C (21°F)
Dewpoint: -11.0°C (12°F) [RH = 68%]
Pressure (altimeter): 29.88 inches Hg (1012.0 mb)
Winds: from the NW (310 degrees) at 20 MPH (17 knots; 8.7 m/s)
Visibility: 6 or more miles (10+ km)
Ceiling: ceiling and visibility are OK
Clouds: unknown
Weather: no significant weather observed at this time

METAR text: ULLI 180700Z 32009MPS CAVOK M06/M11 Q1011 R88/290050 NOSIG
Conditions at: ULLI (ST PETERSBURG , RU) observed 0700 UTC 18 January 2022
Temperature: -6.0°C (21°F)
Dewpoint: -11.0°C (12°F) [RH = 68%]
Pressure (altimeter): 29.85 inches Hg (1011.0 mb)
Winds: from the NW (320 degrees) at 20 MPH (17 knots; 8.7 m/s)
Visibility: 6 or more miles (10+ km)
Ceiling: ceiling and visibility are OK
Clouds: unknown
Weather: no significant weather observed at this time

METAR text: ULLI 180630Z 31008MPS CAVOK M06/M11 Q1011 R88/290050 NOSIG
Conditions at: ULLI (ST PETERSBURG , RU) observed 0630 UTC 18 January 2022
Temperature: -6.0°C (21°F)
Dewpoint: -11.0°C (12°F) [RH = 68%]
Pressure (altimeter): 29.85 inches Hg (1011.0 mb)
Winds: from the NW (310 degrees) at 18 MPH (16 knots; 8.2 m/s)
Visibility: 6 or more miles (10+ km)
Ceiling: ceiling and visibility are OK
Clouds: unknown
Weather: no significant weather observed at this time

METAR text: ULLI 180600Z 31008MPS CAVOK M06/M11 Q1010 R88/290050 NOSIG
Conditions at: ULLI (ST PETERSBURG , RU) observed 0600 UTC 18 January 2022
Temperature: -6.0°C (21°F)
Dewpoint: -11.0°C (12°F) [RH = 68%]
Pressure (altimeter): 29.82 inches Hg (1010.0 mb)
Winds: from the NW (310 degrees) at 18 MPH (16 knots; 8.2 m/s)
Visibility: 6 or more miles (10+ km)
Ceiling: ceiling and visibility are OK
Clouds: unknown
Weather: no significant weather observed at this time

METAR text: ULLI 180530Z 31007MPS CAVOK M06/M12 Q1009 R88/290050 NOSIG
Conditions at: ULLI (ST PETERSBURG , RU) observed 0530 UTC 18 January 2022
Temperature: -6.0°C (21°F)
Dewpoint: -12.0°C (10°F) [RH = 62%]
Pressure (altimeter): 29.79 inches Hg (1009.0 mb)
Winds: from the NW (310 degrees) at 16 MPH (14 knots; 7.2 m/s)
Visibility: 6 or more miles (10+ km)
Ceiling: ceiling and visibility are OK
Clouds: unknown
Weather: no significant weather observed at this time

METAR text: ULLI 180500Z 31007MPS CAVOK M06/M12 Q1008 R88/290050 NOSIG
Conditions at: ULLI (ST PETERSBURG , RU) observed 0500 UTC 18 January 2022
Temperature: -6.0°C (21°F)
Dewpoint: -12.0°C (10°F) [RH = 62%]
Pressure (altimeter): 29.76 inches Hg (1008.0 mb)
Winds: from the NW (310 degrees) at 16 MPH (14 knots; 7.2 m/s)
Visibility: 6 or more miles (10+ km)
Ceiling: ceiling and visibility are OK
Clouds: unknown
Weather: no significant weather observed at this time

METAR text: ULLI 180430Z 31008MPS CAVOK M06/M12 Q1008 R28L/290050 NOSIG
Conditions at: ULLI (ST PETERSBURG , RU) observed 0430 UTC 18 January 2022
Temperature: -6.0°C (21°F)
Dewpoint: -12.0°C (10°F) [RH = 62%]
Pressure (altimeter): 29.76 inches Hg (1008.0 mb)
Winds: from the NW (310 degrees) at 18 MPH (16 knots; 8.2 m/s)
Visibility: 6 or more miles (10+ km)
Ceiling: ceiling and visibility are OK
Clouds: unknown
Weather: no significant weather observed at this time

METAR text: ULLI 180400Z 31009MPS CAVOK M06/M12 Q1007 R28L/290050 NOSIG
Conditions at: ULLI (ST PETERSBURG , RU) observed 0400 UTC 18 January 2022
Temperature: -6.0°C (21°F)
Dewpoint: -12.0°C (10°F) [RH = 62%]
Pressure (altimeter): 29.73 inches Hg (1007.0 mb)
Winds: from the NW (310 degrees) at 20 MPH (17 knots; 8.7 m/s)
Visibility: 6 or more miles (10+ km)
Ceiling: ceiling and visibility are OK
Clouds: unknown
Weather: no significant weather observed at this time

METAR text: ULLI 180330Z 32009MPS CAVOK M06/M12 Q1006 R28L/290050 NOSIG
Conditions at: ULLI (ST PETERSBURG , RU) observed 0330 UTC 18 January 2022
Temperature: -6.0°C (21°F)
Dewpoint: -12.0°C (10°F) [RH = 62%]
Pressure (altimeter): 29.70 inches Hg (1006.0 mb)
Winds: from the NW (320 degrees) at 20 MPH (17 knots; 8.7 m/s)
Visibility: 6 or more miles (10+ km)
Ceiling: ceiling and visibility are OK
Clouds: unknown
Weather: no significant weather observed at this time

METAR text: ULLI 180300Z 32009MPS CAVOK M06/M12 Q1006 R28L/290050 NOSIG
Conditions at: ULLI (ST PETERSBURG , RU) observed 0300 UTC 18 January 2022
Temperature: -6.0°C (21°F)
Dewpoint: -12.0°C (10°F) [RH = 62%]
Pressure (altimeter): 29.70 inches Hg (1006.0 mb)
Winds: from the NW (320 degrees) at 20 MPH (17 knots; 8.7 m/s)
Visibility: 6 or more miles (10+ km)
Ceiling: ceiling and visibility are OK
Clouds: unknown
Weather: no significant weather observed at this time

METAR text: ULLI 180230Z 31009MPS CAVOK M06/M12 Q1005 R28L/290050 NOSIG
Conditions at: ULLI (ST PETERSBURG , RU) observed 0230 UTC 18 January 2022
Temperature: -6.0°C (21°F)
Dewpoint: -12.0°C (10°F) [RH = 62%]
Pressure (altimeter): 29.68 inches Hg (1005.0 mb)
Winds: from the NW (310 degrees) at 20 MPH (17 knots; 8.7 m/s)
Visibility: 6 or more miles (10+ km)
Ceiling: ceiling and visibility are OK
Clouds: unknown
Weather: no significant weather observed at this time

METAR text: ULLI 180200Z 31008MPS CAVOK M06/M12 Q1005 R28L/290050 NOSIG
Conditions at: ULLI (ST PETERSBURG , RU) observed 0200 UTC 18 January 2022
Temperature: -6.0°C (21°F)
Dewpoint: -12.0°C (10°F) [RH = 62%]
Pressure (altimeter): 29.68 inches Hg (1005.0 mb)
Winds: from the NW (310 degrees) at 18 MPH (16 knots; 8.2 m/s)
Visibility: 6 or more miles (10+ km)
Ceiling: ceiling and visibility are OK
Clouds: unknown
Weather: no significant weather observed at this time

METAR text: ULLI 180130Z 32007MPS CAVOK M06/M12 Q1004 R28L/290050 NOSIG
Conditions at: ULLI (ST PETERSBURG , RU) observed 0130 UTC 18 January 2022
Temperature: -6.0°C (21°F)
Dewpoint: -12.0°C (10°F) [RH = 62%]
Pressure (altimeter): 29.65 inches Hg (1004.0 mb)
Winds: from the NW (320 degrees) at 16 MPH (14 knots; 7.2 m/s)
Visibility: 6 or more miles (10+ km)
Ceiling: ceiling and visibility are OK
Clouds: unknown
Weather: no significant weather observed at this time

METAR text: ULLI 180100Z 31008MPS CAVOK M06/M11 Q1003 R28L/290050 NOSIG
Conditions at: ULLI (ST PETERSBURG , RU) observed 0100 UTC 18 January 2022
Temperature: -6.0°C (21°F)
Dewpoint: -11.0°C (12°F) [RH = 68%]
Pressure (altimeter): 29.62 inches Hg (1003.0 mb)
Winds: from the NW (310 degrees) at 18 MPH (16 knots; 8.2 m/s)
Visibility: 6 or more miles (10+ km)
Ceiling: ceiling and visibility are OK
Clouds: unknown
Weather: no significant weather observed at this time

METAR text: ULLI 180030Z 31007MPS CAVOK M06/M12 Q1003 R28L/290050 NOSIG
Conditions at: ULLI (ST PETERSBURG , RU) observed 0030 UTC 18 January 2022
Temperature: -6.0°C (21°F)
Dewpoint: -12.0°C (10°F) [RH = 62%]
Pressure (altimeter): 29.62 inches Hg (1003.0 mb)
Winds: from the NW (310 degrees) at 16 MPH (14 knots; 7.2 m/s)
Visibility: 6 or more miles (10+ km)
Ceiling: ceiling and visibility are OK
Clouds: unknown
Weather: no significant weather observed at this time

METAR text: ULLI 180000Z 31007MPS CAVOK M06/M12 Q1002 R28L/510545 NOSIG
Conditions at: ULLI (ST PETERSBURG , RU) observed 0000 UTC 18 January 2022
Temperature: -6.0°C (21°F)
Dewpoint: -12.0°C (10°F) [RH = 62%]
Pressure (altimeter): 29.59 inches Hg (1002.0 mb)
Winds: from the NW (310 degrees) at 16 MPH (14 knots; 7.2 m/s)
Visibility: 6 or more miles (10+ km)
Ceiling: ceiling and visibility are OK
Clouds: unknown
Weather: no significant weather observed at this time

METAR text: ULLI 172330Z 31007MPS CAVOK M06/M12 Q1001 R28L/510545 NOSIG
Conditions at: ULLI (ST PETERSBURG , RU) observed 2330 UTC 17 January 2022
Temperature: -6.0°C (21°F)
Dewpoint: -12.0°C (10°F) [RH = 62%]
Pressure (altimeter): 29.56 inches Hg (1001.0 mb)
Winds: from the NW (310 degrees) at 16 MPH (14 knots; 7.2 m/s)
Visibility: 6 or more miles (10+ km)
Ceiling: ceiling and visibility are OK
Clouds: unknown
Weather: no significant weather observed at this time

METAR text: ULLI 172300Z 31007MPS CAVOK M06/M12 Q1000 R28L/510545 NOSIG
Conditions at: ULLI (ST PETERSBURG , RU) observed 2300 UTC 17 January 2022
Temperature: -6.0°C (21°F)
Dewpoint: -12.0°C (10°F) [RH = 62%]
Pressure (altimeter): 29.53 inches Hg (1000.0 mb)
Winds: from the NW (310 degrees) at 16 MPH (14 knots; 7.2 m/s)
Visibility: 6 or more miles (10+ km)
Ceiling: ceiling and visibility are OK
Clouds: unknown
Weather: no significant weather observed at this time

METAR text: ULLI 172230Z 31007MPS CAVOK M06/M12 Q1000 R28L/510545 NOSIG
Conditions at: ULLI (ST PETERSBURG , RU) observed 2230 UTC 17 January 2022
Temperature: -6.0°C (21°F)
Dewpoint: -12.0°C (10°F) [RH = 62%]
Pressure (altimeter): 29.53 inches Hg (1000.0 mb)
Winds: from the NW (310 degrees) at 16 MPH (14 knots; 7.2 m/s)
Visibility: 6 or more miles (10+ km)
Ceiling: ceiling and visibility are OK
Clouds: unknown
Weather: no significant weather observed at this time

METAR text: ULLI 172200Z 31007MPS CAVOK M06/M12 Q0999 R28L/510545 NOSIG
Conditions at: ULLI (ST PETERSBURG , RU) observed 2200 UTC 17 January 2022
Temperature: -6.0°C (21°F)
Dewpoint: -12.0°C (10°F) [RH = 62%]
Pressure (altimeter): 29.50 inches Hg (999.0 mb)
Winds: from the NW (310 degrees) at 16 MPH (14 knots; 7.2 m/s)
Visibility: 6 or more miles (10+ km)
Ceiling: ceiling and visibility are OK
Clouds: unknown
Weather: no significant weather observed at this time

METAR text: ULLI 172130Z 30007MPS CAVOK M06/M12 Q0998 R28L/510545 NOSIG
Conditions at: ULLI (ST PETERSBURG , RU) observed 2130 UTC 17 January 2022
Temperature: -6.0°C (21°F)
Dewpoint: -12.0°C (10°F) [RH = 62%]
Pressure (altimeter): 29.47 inches Hg (998.0 mb)
Winds: from the WNW (300 degrees) at 16 MPH (14 knots; 7.2 m/s)
Visibility: 6 or more miles (10+ km)
Ceiling: ceiling and visibility are OK
Clouds: unknown
Weather: no significant weather observed at this time

METAR text: ULLI 172100Z 31008MPS CAVOK M06/M12 Q0997 R28L/510545 NOSIG
Conditions at: ULLI (ST PETERSBURG , RU) observed 2100 UTC 17 January 2022
Temperature: -6.0°C (21°F)
Dewpoint: -12.0°C (10°F) [RH = 62%]
Pressure (altimeter): 29.44 inches Hg (997.0 mb)
Winds: from the NW (310 degrees) at 18 MPH (16 knots; 8.2 m/s)
Visibility: 6 or more miles (10+ km)
Ceiling: ceiling and visibility are OK
Clouds: unknown
Weather: no significant weather observed at this time

METAR text: ULLI 172030Z 31009MPS CAVOK M06/M12 Q0997 R28L/510545 NOSIG
Conditions at: ULLI (ST PETERSBURG , RU) observed 2030 UTC 17 January 2022
Temperature: -6.0°C (21°F)
Dewpoint: -12.0°C (10°F) [RH = 62%]
Pressure (altimeter): 29.44 inches Hg (997.0 mb)
Winds: from the NW (310 degrees) at 20 MPH (17 knots; 8.7 m/s)
Visibility: 6 or more miles (10+ km)
Ceiling: ceiling and visibility are OK
Clouds: unknown
Weather: no significant weather observed at this time

METAR text: ULLI 172000Z 31010MPS CAVOK M05/M11 Q0996 R28L/510545 NOSIG
Conditions at: ULLI (ST PETERSBURG , RU) observed 2000 UTC 17 January 2022
Temperature: -5.0°C (23°F)
Dewpoint: -11.0°C (12°F) [RH = 63%]
Pressure (altimeter): 29.41 inches Hg (996.0 mb)
Winds: from the NW (310 degrees) at 22 MPH (19 knots; 9.8 m/s)
Visibility: 6 or more miles (10+ km)
Ceiling: ceiling and visibility are OK
Clouds: unknown
Weather: no significant weather observed at this time

METAR text: ULLI 171930Z 31010MPS CAVOK M05/M11 Q0995 R28L/510545 NOSIG
Conditions at: ULLI (ST PETERSBURG , RU) observed 1930 UTC 17 January 2022
Temperature: -5.0°C (23°F)
Dewpoint: -11.0°C (12°F) [RH = 63%]
Pressure (altimeter): 29.38 inches Hg (995.0 mb)
Winds: from the NW (310 degrees) at 22 MPH (19 knots; 9.8 m/s)
Visibility: 6 or more miles (10+ km)
Ceiling: ceiling and visibility are OK
Clouds: unknown
Weather: no significant weather observed at this time

METAR text: ULLI 171900Z 32010MPS CAVOK M05/M11 Q0994 R28L/510545 R28R/520542 NOSIG
Conditions at: ULLI (ST PETERSBURG , RU) observed 1900 UTC 17 January 2022
Temperature: -5.0°C (23°F)
Dewpoint: -11.0°C (12°F) [RH = 63%]
Pressure (altimeter): 29.35 inches Hg (994.0 mb)
Winds: from the NW (320 degrees) at 22 MPH (19 knots; 9.8 m/s)
Visibility: 6 or more miles (10+ km)
Ceiling: ceiling and visibility are OK
Clouds: unknown
Weather: no significant weather observed at this time

METAR text: ULLI 171830Z 32011MPS CAVOK M04/M11 Q0994 R28L/510545 R28R/520542 NOSIG
Conditions at: ULLI (ST PETERSBURG , RU) observed 1830 UTC 17 January 2022
Temperature: -4.0°C (25°F)
Dewpoint: -11.0°C (12°F) [RH = 58%]
Pressure (altimeter): 29.35 inches Hg (994.0 mb)
Winds: from the NW (320 degrees) at 24 MPH (21 knots; 10.8 m/s)
Visibility: 6 or more miles (10+ km)
Ceiling: ceiling and visibility are OK
Clouds: unknown
Weather: no significant weather observed at this time

METAR text: ULLI 171800Z 32010MPS CAVOK M04/M10 Q0993 R28L/510545 R28R/520542 NOSIG
Conditions at: ULLI (ST PETERSBURG , RU) observed 1800 UTC 17 January 2022
Temperature: -4.0°C (25°F)
Dewpoint: -10.0°C (14°F) [RH = 63%]
Pressure (altimeter): 29.32 inches Hg (993.0 mb)
Winds: from the NW (320 degrees) at 22 MPH (19 knots; 9.8 m/s)
Visibility: 6 or more miles (10+ km)
Ceiling: ceiling and visibility are OK
Clouds: unknown
Weather: no significant weather observed at this time

METAR text: ULLI 171730Z 31009MPS 9999 SCT033 M04/M10 Q0993 R28L/510545 R28R/520542 NOSIG
Conditions at: ULLI (ST PETERSBURG , RU) observed 1730 UTC 17 January 2022
Temperature: -4.0°C (25°F)
Dewpoint: -10.0°C (14°F) [RH = 63%]
Pressure (altimeter): 29.32 inches Hg (993.0 mb)
Winds: from the NW (310 degrees) at 20 MPH (17 knots; 8.7 m/s)
Visibility: 6 or more miles (10+ km)
Ceiling: at least 12,000 feet AGL
Clouds: scattered clouds at 3300 feet AGL
Weather: no significant weather observed at this time

METAR text: ULLI 171700Z 32009MPS 9999 BKN033 M04/M10 Q0992 R28L/510545 R28R/520542 NOSIG
Conditions at: ULLI (ST PETERSBURG , RU) observed 1700 UTC 17 January 2022
Temperature: -4.0°C (25°F)
Dewpoint: -10.0°C (14°F) [RH = 63%]
Pressure (altimeter): 29.29 inches Hg (992.0 mb)
Winds: from the NW (320 degrees) at 20 MPH (17 knots; 8.7 m/s)
Visibility: 6 or more miles (10+ km)
Ceiling: 3300 feet AGL
Clouds: broken clouds at 3300 feet AGL
Weather: no significant weather observed at this time

METAR text: ULLI 171630Z 33010G15MPS 9999 BKN033 M03/M10 Q0991 R28L/510545 R28R/520542 NOSIG
Conditions at: ULLI (ST PETERSBURG , RU) observed 1630 UTC 17 January 2022
Temperature: -3.0°C (27°F)
Dewpoint: -10.0°C (14°F) [RH = 58%]
Pressure (altimeter): 29.26 inches Hg (991.0 mb)
Winds: from the NNW (330 degrees) at 22 MPH (19 knots; 9.8 m/s)
gusting to 33 MPH (29 knots; 14.9 m/s)
Visibility: 6 or more miles (10+ km)
Ceiling: 3300 feet AGL
Clouds: broken clouds at 3300 feet AGL
Weather: no significant weather observed at this time

METAR text: ULLI 171600Z 32007MPS 9999 -SN BKN030 M03/M08 Q0990 R28L/510545 R28R/520542 NOSIG
Conditions at: ULLI (ST PETERSBURG , RU) observed 1600 UTC 17 January 2022
Temperature: -3.0°C (27°F)
Dewpoint: -8.0°C (18°F) [RH = 68%]
Pressure (altimeter): 29.23 inches Hg (990.0 mb)
Winds: from the NW (320 degrees) at 16 MPH (14 knots; 7.2 m/s)
Visibility: 6 or more miles (10+ km)
Ceiling: 3000 feet AGL
Clouds: broken clouds at 3000 feet AGL
Weather: -SN  (light snow)

METAR text: ULLI 171530Z 33008MPS 9999 -SN BKN033 M03/M08 Q0989 R28L/510545 R28R/520542 NOSIG
Conditions at: ULLI (ST PETERSBURG , RU) observed 1530 UTC 17 January 2022
Temperature: -3.0°C (27°F)
Dewpoint: -8.0°C (18°F) [RH = 68%]
Pressure (altimeter): 29.20 inches Hg (989.0 mb)
Winds: from the NNW (330 degrees) at 18 MPH (16 knots; 8.2 m/s)
Visibility: 6 or more miles (10+ km)
Ceiling: 3300 feet AGL
Clouds: broken clouds at 3300 feet AGL
Weather: -SN  (light snow)

METAR text: ULLI 171500Z 34008G15MPS 310V010 9999 -SN BKN040 M02/M09 Q0989 RMK WS ALL RWY R28L/520545 R28R/520542 NOSIG
Conditions at: ULLI (ST PETERSBURG , RU) observed 1500 UTC 17 January 2022
Temperature: -2.0°C (28°F)
Dewpoint: -9.0°C (16°F) [RH = 59%]
Pressure (altimeter): 29.20 inches Hg (989.0 mb)
Winds: from the NNW (340 degrees) at 18 MPH (16 knots; 8.2 m/s)
gusting to 33 MPH (29 knots; 14.9 m/s)
Visibility: 6 or more miles (10+ km)
Ceiling: 4000 feet AGL
Clouds: broken clouds at 4000 feet AGL
Weather: -SN  (light snow)

METAR text: ULLI 171430Z 33009G15MPS 9999 -SN BKN033 M02/M08 Q0988 R28L/520545 R28R/520542 NOSIG
Conditions at: ULLI (ST PETERSBURG , RU) observed 1430 UTC 17 January 2022
Temperature: -2.0°C (28°F)
Dewpoint: -8.0°C (18°F) [RH = 63%]
Pressure (altimeter): 29.17 inches Hg (988.0 mb)
Winds: from the NNW (330 degrees) at 20 MPH (17 knots; 8.7 m/s)
gusting to 33 MPH (29 knots; 14.9 m/s)
Visibility: 6 or more miles (10+ km)
Ceiling: 3300 feet AGL
Clouds: broken clouds at 3300 feet AGL
Weather: -SN  (light snow)

METAR text: ULLI 171400Z 33008G13MPS 9999 BKN033 M02/M07 Q0987 R28L/520545 R28R/520542 NOSIG
Conditions at: ULLI (ST PETERSBURG , RU) observed 1400 UTC 17 January 2022
Temperature: -2.0°C (28°F)
Dewpoint: -7.0°C (19°F) [RH = 69%]
Pressure (altimeter): 29.14 inches Hg (987.0 mb)
Winds: from the NNW (330 degrees) at 18 MPH (16 knots; 8.2 m/s)
gusting to 29 MPH (25 knots; 12.9 m/s)
Visibility: 6 or more miles (10+ km)
Ceiling: 3300 feet AGL
Clouds: broken clouds at 3300 feet AGL
Weather: no significant weather observed at this time

METAR text: ULLI 171330Z 33008G13MPS 9999 BKN025 M02/M07 Q0986 R28L/520545 R28R/520542 NOSIG
Conditions at: ULLI (ST PETERSBURG , RU) observed 1330 UTC 17 January 2022
Temperature: -2.0°C (28°F)
Dewpoint: -7.0°C (19°F) [RH = 69%]
Pressure (altimeter): 29.11 inches Hg (986.0 mb)
Winds: from the NNW (330 degrees) at 18 MPH (16 knots; 8.2 m/s)
gusting to 29 MPH (25 knots; 12.9 m/s)
Visibility: 6 or more miles (10+ km)
Ceiling: 2500 feet AGL
Clouds: broken clouds at 2500 feet AGL
Weather: no significant weather observed at this time

METAR text: ULLI 171300Z 33008MPS 9999 BKN023 M02/M06 Q0985 R28L/520545 R28R/520542 NOSIG
Conditions at: ULLI (ST PETERSBURG , RU) observed 1300 UTC 17 January 2022
Temperature: -2.0°C (28°F)
Dewpoint: -6.0°C (21°F) [RH = 74%]
Pressure (altimeter): 29.08 inches Hg (985.0 mb)
Winds: from the NNW (330 degrees) at 18 MPH (16 knots; 8.2 m/s)
Visibility: 6 or more miles (10+ km)
Ceiling: 2300 feet AGL
Clouds: broken clouds at 2300 feet AGL
Weather: no significant weather observed at this time

METAR text: ULLI 171230Z 33008G13MPS 9999 BKN020 M02/M06 Q0984 R28L/520545 R28R/520542 NOSIG
Conditions at: ULLI (ST PETERSBURG , RU) observed 1230 UTC 17 January 2022
Temperature: -2.0°C (28°F)
Dewpoint: -6.0°C (21°F) [RH = 74%]
Pressure (altimeter): 29.06 inches Hg (984.0 mb)
Winds: from the NNW (330 degrees) at 18 MPH (16 knots; 8.2 m/s)
gusting to 29 MPH (25 knots; 12.9 m/s)
Visibility: 6 or more miles (10+ km)
Ceiling: 2000 feet AGL
Clouds: broken clouds at 2000 feet AGL
Weather: no significant weather observed at this time

METAR text: ULLI 171200Z 34007MPS 310V010 9999 FEW012 BKN020 M01/M05 Q0983 R28L/520545 R28R/520542 NOSIG
Conditions at: ULLI (ST PETERSBURG , RU) observed 1200 UTC 17 January 2022
Temperature: -1.0°C (30°F)
Dewpoint: -5.0°C (23°F) [RH = 74%]
Pressure (altimeter): 29.03 inches Hg (983.0 mb)
Winds: from the NNW (340 degrees) at 16 MPH (14 knots; 7.2 m/s)
Visibility: 6 or more miles (10+ km)
Ceiling: 2000 feet AGL
Clouds: few clouds at 1200 feet AGL
broken clouds at 2000 feet AGL
Weather: no significant weather observed at this time

METAR text: ULLI 171130Z 34006MPS 9999 FEW012 BKN020 M00/M03 Q0982 R28L/520545 R28R/520542 NOSIG
Conditions at: ULLI (ST PETERSBURG , RU) observed 1130 UTC 17 January 2022
Temperature: 0.0°C (32°F)
Dewpoint: -3.0°C (27°F) [RH = 80%]
Pressure (altimeter): 29.00 inches Hg (982.0 mb)
Winds: from the NNW (340 degrees) at 14 MPH (12 knots; 6.2 m/s)
Visibility: 6 or more miles (10+ km)
Ceiling: 2000 feet AGL
Clouds: few clouds at 1200 feet AGL
broken clouds at 2000 feet AGL
Weather: no significant weather observed at this time

METAR text: ULLI 171100Z 33004MPS 9999 SCT012 BKN023 00/M02 Q0982 R28L/520545 R28R/520542 NOSIG
Conditions at: ULLI (ST PETERSBURG , RU) observed 1100 UTC 17 January 2022
Temperature: 0.0°C (32°F)
Dewpoint: -2.0°C (28°F) [RH = 86%]
Pressure (altimeter): 29.00 inches Hg (982.0 mb)
Winds: from the NNW (330 degrees) at 9 MPH (8 knots; 4.1 m/s)
Visibility: 6 or more miles (10+ km)
Ceiling: 2300 feet AGL
Clouds: scattered clouds at 1200 feet AGL
broken clouds at 2300 feet AGL
Weather: no significant weather observed at this time

METAR text: ULLI 171030Z 32003MPS 9999 FEW012 BKN023 M00/M02 Q0981 R28L/520545 R28R/520542 NOSIG
Conditions at: ULLI (ST PETERSBURG , RU) observed 1030 UTC 17 January 2022
Temperature: 0.0°C (32°F)
Dewpoint: -2.0°C (28°F) [RH = 86%]
Pressure (altimeter): 28.97 inches Hg (981.0 mb)
Winds: from the NW (320 degrees) at 7 MPH (6 knots; 3.1 m/s)
Visibility: 6 or more miles (10+ km)
Ceiling: 2300 feet AGL
Clouds: few clouds at 1200 feet AGL
broken clouds at 2300 feet AGL
Weather: no significant weather observed at this time

METAR text: ULLI 171000Z 33002MPS 300V360 9000 OVC020 M00/M01 Q0981 R28L/520545 R28R/520542 NOSIG
Conditions at: ULLI (ST PETERSBURG , RU) observed 1000 UTC 17 January 2022
Temperature: 0.0°C (32°F)
Dewpoint: -1.0°C (30°F) [RH = 93%]
Pressure (altimeter): 28.97 inches Hg (981.0 mb)
Winds: from the NNW (330 degrees) at 5 MPH (4 knots; 2.1 m/s)
Visibility: 6 miles ( 9 km)
Ceiling: 2000 feet AGL
Clouds: overcast cloud deck at 2000 feet AGL
Weather: no significant weather observed at this time

METAR text: ULLI 170930Z 01002MPS 8000 BKN017 M01/M02 Q0980 R28L/520545 R28R/520542 NOSIG
Conditions at: ULLI (ST PETERSBURG , RU) observed 0930 UTC 17 January 2022
Temperature: -1.0°C (30°F)
Dewpoint: -2.0°C (28°F) [RH = 93%]
Pressure (altimeter): 28.94 inches Hg (980.0 mb)
Winds: from the N (10 degrees) at 5 MPH (4 knots; 2.1 m/s)
Visibility: 5 miles ( 8 km)
Ceiling: 1700 feet AGL
Clouds: broken clouds at 1700 feet AGL
Weather: no significant weather observed at this time

METAR text: ULLI 170900Z 10002MPS 070V130 7000 BKN016 M01/M02 Q0980 R28L/520545 R28R/520542 NOSIG
Conditions at: ULLI (ST PETERSBURG , RU) observed 0900 UTC 17 January 2022
Temperature: -1.0°C (30°F)
Dewpoint: -2.0°C (28°F) [RH = 93%]
Pressure (altimeter): 28.94 inches Hg (980.0 mb)
Winds: from the E (100 degrees) at 5 MPH (4 knots; 2.1 m/s)
Visibility: 4 miles ( 7 km)
Ceiling: 1600 feet AGL
Clouds: broken clouds at 1600 feet AGL
Weather: no significant weather observed at this time

METAR text: ULLI 170830Z 11002MPS 7000 BKN016 M02/M03 Q0979 R28L/520545 R28R/520542 NOSIG
Conditions at: ULLI (ST PETERSBURG , RU) observed 0830 UTC 17 January 2022
Temperature: -2.0°C (28°F)
Dewpoint: -3.0°C (27°F) [RH = 93%]
Pressure (altimeter): 28.91 inches Hg (979.0 mb)
Winds: from the ESE (110 degrees) at 5 MPH (4 knots; 2.1 m/s)
Visibility: 4 miles ( 7 km)
Ceiling: 1600 feet AGL
Clouds: broken clouds at 1600 feet AGL
Weather: no significant weather observed at this time

METAR text: ULLI 170800Z 17002MPS 140V240 5000 1100SE R28L/1300U BR BKN001 M02/M03 Q0979 R28L/520545 R28R/520542 NOSIG RMK QBB050 OBST OBSC
Conditions at: ULLI (ST PETERSBURG , RU) observed 0800 UTC 17 January 2022
Temperature: -2.0°C (28°F)
Dewpoint: -3.0°C (27°F) [RH = 93%]
Pressure (altimeter): 28.91 inches Hg (979.0 mb)
Winds: from the S (170 degrees) at 5 MPH (4 knots; 2.1 m/s)
Visibility: 3 miles ( 5 km)
Ceiling: 100 feet AGL
Clouds: broken clouds at 100 feet AGL
Weather: BR  (mist)

METAR text: ULLI 170730Z 15002MPS 110V170 0600 0300NE R28R/1300U FZFG BKN001 M02/M03 Q0979 R28L/520545 R28R/520542 NOSIG RMK QBB040 OBST OBSC
Conditions at: ULLI (ST PETERSBURG , RU) observed 0730 UTC 17 January 2022
Temperature: -2.0°C (28°F)
Dewpoint: -3.0°C (27°F) [RH = 93%]
Pressure (altimeter): 28.91 inches Hg (979.0 mb)
Winds: from the SSE (150 degrees) at 5 MPH (4 knots; 2.1 m/s)
Visibility: 0.37 miles (0.60 km)
Ceiling: 100 feet AGL
Clouds: broken clouds at 100 feet AGL
Weather: FZFG  (freezing fog)

METAR text: ULLI 170700Z 19002MPS 160V230 1200 0450E R28L/1600U R28R/0900D PRFG BR BKN001 M02/M03 Q0979 R28L/520545 R28R/520542 NOSIG RMK QBB050 OBST OBSC
Conditions at: ULLI (ST PETERSBURG , RU) observed 0700 UTC 17 January 2022
Temperature: -2.0°C (28°F)
Dewpoint: -3.0°C (27°F) [RH = 93%]
Pressure (altimeter): 28.91 inches Hg (979.0 mb)
Winds: from the S (190 degrees) at 5 MPH (4 knots; 2.1 m/s)
Visibility: 0.75 miles (1.21 km)
Ceiling: 100 feet AGL
Clouds: broken clouds at 100 feet AGL
Weather: PRFG BR  (partial fog, mist)

METAR text: ULLI 170630Z 16002MPS 130V190 9999 BKN004 M02/M03 Q0979 R28L/520545 R28R/520542 TEMPO 0800 +SHSN BKN002 BKN010CB RMK QBB120 OBST OBSC
Conditions at: ULLI (ST PETERSBURG , RU) observed 0630 UTC 17 January 2022
Temperature: -2.0°C (28°F)
Dewpoint: -3.0°C (27°F) [RH = 93%]
Pressure (altimeter): 28.91 inches Hg (979.0 mb)
Winds: from the SSE (160 degrees) at 5 MPH (4 knots; 2.1 m/s)
Visibility: 6 or more miles (10+ km)
Ceiling: 400 feet AGL
Clouds: broken clouds at 400 feet AGL
Weather: no significant weather observed at this time

METAR text: ULLI 170600Z 11003MPS 9999 FEW025 M02/M03 Q0978 R28L/520545 R28R/520542 NOSIG
Conditions at: ULLI (ST PETERSBURG , RU) observed 0600 UTC 17 January 2022
Temperature: -2.0°C (28°F)
Dewpoint: -3.0°C (27°F) [RH = 93%]
Pressure (altimeter): 28.88 inches Hg (978.0 mb)
Winds: from the ESE (110 degrees) at 7 MPH (6 knots; 3.1 m/s)
Visibility: 6 or more miles (10+ km)
Ceiling: at least 12,000 feet AGL
Clouds: few clouds at 2500 feet AGL
Weather: no significant weather observed at this time

METAR text: ULLI 170530Z 13002MPS 9999 FEW025 M02/M03 Q0978 R88/520545 NOSIG
Conditions at: ULLI (ST PETERSBURG , RU) observed 0530 UTC 17 January 2022
Temperature: -2.0°C (28°F)
Dewpoint: -3.0°C (27°F) [RH = 93%]
Pressure (altimeter): 28.88 inches Hg (978.0 mb)
Winds: from the SE (130 degrees) at 5 MPH (4 knots; 2.1 m/s)
Visibility: 6 or more miles (10+ km)
Ceiling: at least 12,000 feet AGL
Clouds: few clouds at 2500 feet AGL
Weather: no significant weather observed at this time

METAR text: ULLI 170500Z 18002MPS 150V210 9999 SCT025 M01/M03 Q0979 R88/520545 NOSIG
Conditions at: ULLI (ST PETERSBURG , RU) observed 0500 UTC 17 January 2022
Temperature: -1.0°C (30°F)
Dewpoint: -3.0°C (27°F) [RH = 86%]
Pressure (altimeter): 28.91 inches Hg (979.0 mb)
Winds: from the S (180 degrees) at 5 MPH (4 knots; 2.1 m/s)
Visibility: 6 or more miles (10+ km)
Ceiling: at least 12,000 feet AGL
Clouds: scattered clouds at 2500 feet AGL
Weather: no significant weather observed at this time

METAR text: ULLI 170430Z 16002MPS 140V230 9999 BKN024 M01/M02 Q0979 R28R/520545 NOSIG
Conditions at: ULLI (ST PETERSBURG , RU) observed 0430 UTC 17 January 2022
Temperature: -1.0°C (30°F)
Dewpoint: -2.0°C (28°F) [RH = 93%]
Pressure (altimeter): 28.91 inches Hg (979.0 mb)
Winds: from the SSE (160 degrees) at 5 MPH (4 knots; 2.1 m/s)
Visibility: 6 or more miles (10+ km)
Ceiling: 2400 feet AGL
Clouds: broken clouds at 2400 feet AGL
Weather: no significant weather observed at this time

METAR text: ULLI 170400Z VRB01MPS 9999 BKN021 M00/M02 Q0980 R28R/520545 NOSIG
Conditions at: ULLI (ST PETERSBURG , RU) observed 0400 UTC 17 January 2022
Temperature: 0.0°C (32°F)
Dewpoint: -2.0°C (28°F) [RH = 86%]
Pressure (altimeter): 28.94 inches Hg (980.0 mb)
Winds: variable direction winds at 2 MPH (2 knots; 1.0 m/s)
Visibility: 6 or more miles (10+ km)
Ceiling: 2100 feet AGL
Clouds: broken clouds at 2100 feet AGL
Weather: no significant weather observed at this time

METAR text: ULLI 170330Z 21003MPS 190V250 9999 SCT020 M00/M03 Q0980 R28R/520545 NOSIG
Conditions at: ULLI (ST PETERSBURG , RU) observed 0330 UTC 17 January 2022
Temperature: 0.0°C (32°F)
Dewpoint: -3.0°C (27°F) [RH = 80%]
Pressure (altimeter): 28.94 inches Hg (980.0 mb)
Winds: from the SSW (210 degrees) at 7 MPH (6 knots; 3.1 m/s)
Visibility: 6 or more miles (10+ km)
Ceiling: at least 12,000 feet AGL
Clouds: scattered clouds at 2000 feet AGL
Weather: no significant weather observed at this time

METAR text: ULLI 170300Z 24004MPS 9999 OVC019 00/M03 Q0981 R28R/520545 NOSIG
Conditions at: ULLI (ST PETERSBURG , RU) observed 0300 UTC 17 January 2022
Temperature: 0.0°C (32°F)
Dewpoint: -3.0°C (27°F) [RH = 80%]
Pressure (altimeter): 28.97 inches Hg (981.0 mb)
Winds: from the WSW (240 degrees) at 9 MPH (8 knots; 4.1 m/s)
Visibility: 6 or more miles (10+ km)
Ceiling: 1900 feet AGL
Clouds: overcast cloud deck at 1900 feet AGL
Weather: no significant weather observed at this time

METAR text: ULLI 170230Z 26003MPS 220V300 9999 OVC017 01/M02 Q0981 R28L/520537 NOSIG
Conditions at: ULLI (ST PETERSBURG , RU) observed 0230 UTC 17 January 2022
Temperature: 1.0°C (34°F)
Dewpoint: -2.0°C (28°F) [RH = 80%]
Pressure (altimeter): 28.97 inches Hg (981.0 mb)
Winds: from the W (260 degrees) at 7 MPH (6 knots; 3.1 m/s)
Visibility: 6 or more miles (10+ km)
Ceiling: 1700 feet AGL
Clouds: overcast cloud deck at 1700 feet AGL
Weather: no significant weather observed at this time

METAR text: ULLI 170200Z 28004MPS 9999 OVC018 01/M02 Q0982 R28L/520537 NOSIG
Conditions at: ULLI (ST PETERSBURG , RU) observed 0200 UTC 17 January 2022
Temperature: 1.0°C (34°F)
Dewpoint: -2.0°C (28°F) [RH = 80%]
Pressure (altimeter): 29.00 inches Hg (982.0 mb)
Winds: from the W (280 degrees) at 9 MPH (8 knots; 4.1 m/s)
Visibility: 6 or more miles (10+ km)
Ceiling: 1800 feet AGL
Clouds: overcast cloud deck at 1800 feet AGL
Weather: no significant weather observed at this time

METAR text: ULLI 170130Z 28006G11MPS 9999 OVC014 01/M02 Q0982 R28L/520537 NOSIG
Conditions at: ULLI (ST PETERSBURG , RU) observed 0130 UTC 17 January 2022
Temperature: 1.0°C (34°F)
Dewpoint: -2.0°C (28°F) [RH = 80%]
Pressure (altimeter): 29.00 inches Hg (982.0 mb)
Winds: from the W (280 degrees) at 14 MPH (12 knots; 6.2 m/s)
gusting to 24 MPH (21 knots; 10.8 m/s)
Visibility: 6 or more miles (10+ km)
Ceiling: 1400 feet AGL
Clouds: overcast cloud deck at 1400 feet AGL
Weather: no significant weather observed at this time

METAR text: ULLI 170100Z 28008MPS 9999 FEW010 OVC018 01/M01 Q0983 R28L/520542 NOSIG
Conditions at: ULLI (ST PETERSBURG , RU) observed 0100 UTC 17 January 2022
Temperature: 1.0°C (34°F)
Dewpoint: -1.0°C (30°F) [RH = 86%]
Pressure (altimeter): 29.03 inches Hg (983.0 mb)
Winds: from the W (280 degrees) at 18 MPH (16 knots; 8.2 m/s)
Visibility: 6 or more miles (10+ km)
Ceiling: 1800 feet AGL
Clouds: few clouds at 1000 feet AGL
overcast cloud deck at 1800 feet AGL
Weather: no significant weather observed at this time

METAR text: ULLI 170030Z 27006MPS 9999 BKN010 01/M01 Q0983 R28L/520542 NOSIG
Conditions at: ULLI (ST PETERSBURG , RU) observed 0030 UTC 17 January 2022
Temperature: 1.0°C (34°F)
Dewpoint: -1.0°C (30°F) [RH = 86%]
Pressure (altimeter): 29.03 inches Hg (983.0 mb)
Winds: from the W (270 degrees) at 14 MPH (12 knots; 6.2 m/s)
Visibility: 6 or more miles (10+ km)
Ceiling: 1000 feet AGL
Clouds: broken clouds at 1000 feet AGL
Weather: no significant weather observed at this time

METAR text: ULLI 170000Z 28006MPS 9999 FEW010 SCT016CB BKN026 01/M01 Q0983 R28L/520542 NOSIG
Conditions at: ULLI (ST PETERSBURG , RU) observed 0000 UTC 17 January 2022
Temperature: 1.0°C (34°F)
Dewpoint: -1.0°C (30°F) [RH = 86%]
Pressure (altimeter): 29.03 inches Hg (983.0 mb)
Winds: from the W (280 degrees) at 14 MPH (12 knots; 6.2 m/s)
Visibility: 6 or more miles (10+ km)
Ceiling: 2600 feet AGL
Clouds: few clouds at 1000 feet AGL
scattered clouds at 1600 feet AGL
broken clouds at 2600 feet AGL
Weather: no significant weather observed at this time

METAR text: ULLI 162330Z 27005MPS 230V290 9999 FEW010 SCT016CB BKN043 01/M01 Q0983 R28L/520542 NOSIG
Conditions at: ULLI (ST PETERSBURG , RU) observed 2330 UTC 16 January 2022
Temperature: 1.0°C (34°F)
Dewpoint: -1.0°C (30°F) [RH = 86%]
Pressure (altimeter): 29.03 inches Hg (983.0 mb)
Winds: from the W (270 degrees) at 12 MPH (10 knots; 5.1 m/s)
Visibility: 6 or more miles (10+ km)
Ceiling: 4300 feet AGL
Clouds: few clouds at 1000 feet AGL
scattered clouds at 1600 feet AGL
broken clouds at 4300 feet AGL
Weather: no significant weather observed at this time

METAR text: ULLI 162300Z 27005G10MPS 9999 -SHRA SCT008 BKN016CB BKN034 01/M01 Q0983 R28L/520542 NOSIG
Conditions at: ULLI (ST PETERSBURG , RU) observed 2300 UTC 16 January 2022
Temperature: 1.0°C (34°F)
Dewpoint: -1.0°C (30°F) [RH = 86%]
Pressure (altimeter): 29.03 inches Hg (983.0 mb)
Winds: from the W (270 degrees) at 12 MPH (10 knots; 5.1 m/s)
gusting to 22 MPH (19 knots; 9.8 m/s)
Visibility: 6 or more miles (10+ km)
Ceiling: 1600 feet AGL
Clouds: scattered clouds at 800 feet AGL
broken clouds at 1600 feet AGL
broken clouds at 3400 feet AGL
Weather: -SHRA  (light rain showers)

METAR text: ULLI 162230Z 26005MPS 230V290 9999 -SHRA BKN007 BKN018CB OVC036 01/M00 Q0983 R28L/520542 NOSIG
Conditions at: ULLI (ST PETERSBURG , RU) observed 2230 UTC 16 January 2022
Temperature: 1.0°C (34°F)
Dewpoint: 0.0°C (32°F) [RH = 93%]
Pressure (altimeter): 29.03 inches Hg (983.0 mb)
Winds: from the W (260 degrees) at 12 MPH (10 knots; 5.1 m/s)
Visibility: 6 or more miles (10+ km)
Ceiling: 700 feet AGL
Clouds: broken clouds at 700 feet AGL
broken clouds at 1800 feet AGL
overcast cloud deck at 3600 feet AGL
Weather: -SHRA  (light rain showers)

METAR text: ULLI 162200Z 25005G10MPS 210V280 9999 -SHRA BKN008 BKN017CB OVC043 02/M00 Q0983 R28L/520542 NOSIG
Conditions at: ULLI (ST PETERSBURG , RU) observed 2200 UTC 16 January 2022
Temperature: 2.0°C (36°F)
Dewpoint: 0.0°C (32°F) [RH = 87%]
Pressure (altimeter): 29.03 inches Hg (983.0 mb)
Winds: from the WSW (250 degrees) at 12 MPH (10 knots; 5.1 m/s)
gusting to 22 MPH (19 knots; 9.8 m/s)
Visibility: 6 or more miles (10+ km)
Ceiling: 800 feet AGL
Clouds: broken clouds at 800 feet AGL
broken clouds at 1700 feet AGL
overcast cloud deck at 4300 feet AGL
Weather: -SHRA  (light rain showers)

Forecast for: ULLI (ST PETERSBURG , RU)
Text: TAF ULLI 180757Z 1809/1909 30007G12MPS 9999 SCT016
Forecast period: 0900 to 1400 UTC 18 January 2022
Forecast type: FROM: standard forecast or significant change
Winds: from the WNW (300 degrees) at 16 MPH (14 knots; 7.2 m/s)
gusting to 26 MPH (23 knots; 11.8 m/s)
Visibility: 6 or more miles (10+ km)
Ceiling: at least 12,000 feet AGL
Clouds: scattered clouds at 1600 feet AGL
Weather: no significant weather forecast for this period
Text: BECMG 1814/1815 27005MPS BKN016
Forecast period: 1400 to 1800 UTC 18 January 2022
Forecast type: BECOMING: Conditions expected to become as follows by 1500 UTC 18 January 2022
Winds: from the W (270 degrees) at 12 MPH (10 knots; 5.1 m/s)
Visibility: 6 or more miles (10+ km)
Ceiling: 1600 feet AGL
Clouds: broken clouds at 1600 feet AGL
Weather: no significant weather forecast for this period
Text: BECMG 1818/1820 21003G08MPS
Forecast period: 1800 UTC 18 January 2022 to 0300 UTC 19 January 2022
Forecast type: BECOMING: Conditions expected to become as follows by 2000 UTC 18 January 2022
Winds: from the SSW (210 degrees) at 7 MPH (6 knots; 3.1 m/s)
gusting to 18 MPH (16 knots; 8.2 m/s)
Visibility: 6 or more miles (10+ km)
Ceiling: 1600 feet AGL
Clouds: broken clouds at 1600 feet AGL
Weather: no significant weather forecast for this period
Text: TEMPO 1820/1903 3000 -SN BR OVC004
Forecast period: 2000 UTC 18 January 2022 to 0300 UTC 19 January 2022
Forecast type: TEMPORARY: The following changes expected for less than half the time period
Visibility: 1.86 miles (2.99 km)
Ceiling: 400 feet AGL
Clouds: overcast cloud deck at 400 feet AGL
Weather: -SN BR  (light snow, mist)
Text: FM190300 23005G10MPS 6000 BKN007 OVC010
Forecast period: 0300 to 0900 UTC 19 January 2022
Forecast type: FROM: standard forecast or significant change
Winds: from the SW (230 degrees) at 12 MPH (10 knots; 5.1 m/s)
gusting to 22 MPH (19 knots; 9.8 m/s)
Visibility: 4 miles (6 km)
Ceiling: 700 feet AGL
Clouds: broken clouds at 700 feet AGL
overcast cloud deck at 1000 feet AGL
Weather: no significant weather forecast for this period
Text: TEMPO 1903/1909 3000 -SNRA BR OVC004
Forecast period: 0300 to 0900 UTC 19 January 2022
Forecast type: TEMPORARY: The following changes expected for less than half the time period
Visibility: 1.86 miles (2.99 km)
Ceiling: 400 feet AGL
Clouds: overcast cloud deck at 400 feet AGL
Weather: -SN -RA BR  (light snow, light rain, mist)